sensor_id;sensor_type;location;lat;lon;timestamp;pressure;altitude;pressure_sealevel;temperature;humidity
54503;BME280;40411;50.090;21.954;2023-07-16T00:01:52;630.09;;;18.47;100.00
54503;BME280;40411;50.090;21.954;2023-07-16T00:04:18;629.94;;;18.45;100.00
54503;BME280;40411;50.090;21.954;2023-07-16T00:06:44;630.41;;;18.51;100.00
54503;BME280;40411;50.090;21.954;2023-07-16T00:09:09;962.63;;;18.42;100.00
54503;BME280;40411;50.090;21.954;2023-07-16T00:11:35;962.16;;;18.36;100.00
54503;BME280;40411;50.090;21.954;2023-07-16T00:14:01;630.09;;;18.47;100.00
54503;BME280;40411;50.090;21.954;2023-07-16T00:16:28;630.16;;;18.48;100.00
54503;BME280;40411;50.090;21.954;2023-07-16T00:18:53;630.03;;;18.46;100.00
54503;BME280;40411;50.090;21.954;2023-07-16T00:21:19;629.94;;;18.45;100.00
54503;BME280;40411;50.090;21.954;2023-07-16T00:23:45;629.59;;;18.40;100.00
54503;BME280;40411;50.090;21.954;2023-07-16T00:26:12;629.59;;;18.40;100.00
54503;BME280;40411;50.090;21.954;2023-07-16T00:28:38;629.56;;;18.39;100.00
54503;BME280;40411;50.090;21.954;2023-07-16T00:31:04;961.91;;;18.32;100.00
54503;BME280;40411;50.090;21.954;2023-07-16T00:33:31;961.47;;;18.26;100.00
54503;BME280;40411;50.090;21.954;2023-07-16T00:35:57;1294.06;;;18.23;100.00
54503;BME280;40411;50.090;21.954;2023-07-16T00:38:22;1294.00;;;18.22;100.00
54503;BME280;40411;50.090;21.954;2023-07-16T00:40:49;1293.34;;;18.14;100.00
54503;BME280;40411;50.090;21.954;2023-07-16T00:43:15;1625.13;;;18.02;100.00
54503;BME280;40411;50.090;21.954;2023-07-16T00:45:42;1624.47;;;17.95;100.00
54503;BME280;40411;50.090;21.954;2023-07-16T00:48:11;1624.44;;;17.94;100.00
54503;BME280;40411;50.090;21.954;2023-07-16T00:50:38;1292.69;;;18.06;100.00
54503;BME280;40411;50.090;21.954;2023-07-16T00:53:05;1623.69;;;17.85;100.00
54503;BME280;40411;50.090;21.954;2023-07-16T00:55:34;1291.75;;;17.94;100.00
54503;BME280;40411;50.090;21.954;2023-07-16T00:58:02;960.09;;;18.08;100.00
54503;BME280;40411;50.090;21.954;2023-07-16T01:00:31;1292.53;;;18.04;100.00
54503;BME280;40411;50.090;21.954;2023-07-16T01:02:58;1292.28;;;18.01;100.00
54503;BME280;40411;50.090;21.954;2023-07-16T01:05:25;1291.81;;;17.95;100.00
54503;BME280;40411;50.090;21.954;2023-07-16T01:08:01;1291.94;;;17.97;100.00
54503;BME280;40411;50.090;21.954;2023-07-16T01:10:30;1292.09;;;17.99;100.00
54503;BME280;40411;50.090;21.954;2023-07-16T01:12:57;1291.66;;;17.93;100.00
54503;BME280;40411;50.090;21.954;2023-07-16T01:15:24;1291.28;;;17.89;100.00
54503;BME280;40411;50.090;21.954;2023-07-16T01:17:50;1291.47;;;17.91;100.00
54503;BME280;40411;50.090;21.954;2023-07-16T01:20:16;1291.69;;;17.94;100.00
54503;BME280;40411;50.090;21.954;2023-07-16T01:25:53;1291.66;;;17.93;100.00
54503;BME280;40411;50.090;21.954;2023-07-16T01:28:44;1292.44;;;18.03;100.00
54503;BME280;40411;50.090;21.954;2023-07-16T01:31:15;1292.53;;;18.04;100.00
54503;BME280;40411;50.090;21.954;2023-07-16T01:33:42;960.22;;;18.09;100.00
54503;BME280;40411;50.090;21.954;2023-07-16T01:36:12;1293.00;;;18.10;100.00
54503;BME280;40411;50.090;21.954;2023-07-16T01:38:39;1292.53;;;18.04;100.00
54503;BME280;40411;50.090;21.954;2023-07-16T01:41:05;1292.69;;;18.06;100.00
54503;BME280;40411;50.090;21.954;2023-07-16T01:43:31;1293.00;;;18.10;100.00
54503;BME280;40411;50.090;21.954;2023-07-16T01:45:57;960.72;;;18.16;100.00
54503;BME280;40411;50.090;21.954;2023-07-16T01:50:48;298.22;;;18.63;100.00
54503;BME280;40411;50.090;21.954;2023-07-16T01:53:14;299.28;;;18.79;100.00
54503;BME280;40411;50.090;21.954;2023-07-16T01:55:40;-32.69;;;18.97;100.00
54503;BME280;40411;50.090;21.954;2023-07-16T01:58:06;-364.56;;;19.19;100.00
54503;BME280;40411;50.090;21.954;2023-07-16T02:00:32;-31.22;;;19.22;100.00
54503;BME280;40411;50.090;21.954;2023-07-16T02:02:57;-30.84;;;19.28;100.00
54503;BME280;40411;50.090;21.954;2023-07-16T02:05:23;-30.56;;;19.33;100.00
54503;BME280;40411;50.090;21.954;2023-07-16T02:07:49;-362.78;;;19.52;100.00
54503;BME280;40411;50.090;21.954;2023-07-16T02:10:15;-361.94;;;19.68;100.00
54503;BME280;40411;50.090;21.954;2023-07-16T02:12:41;-361.78;;;19.70;100.00
54503;BME280;40411;50.090;21.954;2023-07-16T02:15:07;-361.56;;;19.74;100.00
54503;BME280;40411;50.090;21.954;2023-07-16T02:17:36;-28.47;;;19.68;100.00
54503;BME280;40411;50.090;21.954;2023-07-16T02:20:02;-28.88;;;19.61;100.00
54503;BME280;40411;50.090;21.954;2023-07-16T02:22:31;-28.88;;;19.61;100.00
54503;BME280;40411;50.090;21.954;2023-07-16T02:24:57;303.66;;;19.47;100.00
54503;BME280;40411;50.090;21.954;2023-07-16T02:27:22;303.03;;;19.37;100.00
54503;BME280;40411;50.090;21.954;2023-07-16T02:29:48;301.50;;;19.13;100.00
54503;BME280;40411;50.090;21.954;2023-07-16T02:32:15;966.34;;;18.91;100.00
54503;BME280;40411;50.090;21.954;2023-07-16T02:34:41;633.16;;;18.91;100.00
54503;BME280;40411;50.090;21.954;2023-07-16T02:37:07;633.31;;;18.93;100.00
54503;BME280;40411;50.090;21.954;2023-07-16T02:39:33;633.22;;;18.92;100.00
54503;BME280;40411;50.090;21.954;2023-07-16T02:41:58;965.19;;;18.76;100.00
54503;BME280;40411;50.090;21.954;2023-07-16T02:44:24;965.19;;;18.76;100.00
54503;BME280;40411;50.090;21.954;2023-07-16T02:46:50;965.00;;;18.73;100.00
54503;BME280;40411;50.090;21.954;2023-07-16T02:49:16;965.06;;;18.74;100.00
54503;BME280;40411;50.090;21.954;2023-07-16T02:51:42;965.56;;;18.81;100.00
54503;BME280;40411;50.090;21.954;2023-07-16T02:54:08;965.69;;;18.83;100.00
54503;BME280;40411;50.090;21.954;2023-07-16T02:56:34;633.00;;;18.89;100.00
54503;BME280;40411;50.090;21.954;2023-07-16T02:59:00;633.81;;;19.00;100.00
54503;BME280;40411;50.090;21.954;2023-07-16T03:01:26;633.84;;;19.01;100.00
54503;BME280;40411;50.090;21.954;2023-07-16T03:03:52;633.09;;;18.90;100.00
54503;BME280;40411;50.090;21.954;2023-07-16T03:06:17;964.63;;;18.68;100.00
54503;BME280;40411;50.090;21.954;2023-07-16T03:08:43;965.16;;;18.75;100.00
54503;BME280;40411;50.090;21.954;2023-07-16T03:11:11;632.25;;;18.78;100.00
54503;BME280;40411;50.090;21.954;2023-07-16T03:13:38;632.50;;;18.82;100.00
54503;BME280;40411;50.090;21.954;2023-07-16T03:16:04;631.97;;;18.74;100.00
54503;BME280;40411;50.090;21.954;2023-07-16T03:18:30;631.88;;;18.72;100.00
54503;BME280;40411;50.090;21.954;2023-07-16T03:20:56;631.97;;;18.74;100.00
54503;BME280;40411;50.090;21.954;2023-07-16T03:23:23;632.16;;;18.77;100.00
54503;BME280;40411;50.090;21.954;2023-07-16T03:25:49;631.88;;;18.72;100.00
54503;BME280;40411;50.090;21.954;2023-07-16T03:28:15;631.53;;;18.67;100.00
54503;BME280;40411;50.090;21.954;2023-07-16T03:30:48;631.75;;;18.71;100.00
54503;BME280;40411;50.090;21.954;2023-07-16T03:33:14;299.13;;;18.77;100.00
54503;BME280;40411;50.090;21.954;2023-07-16T03:35:43;299.25;;;18.79;100.00
54503;BME280;40411;50.090;21.954;2023-07-16T03:38:13;299.69;;;18.85;100.00
54503;BME280;40411;50.090;21.954;2023-07-16T03:40:39;299.34;;;18.80;100.00
54503;BME280;40411;50.090;21.954;2023-07-16T03:43:06;299.38;;;18.81;100.00
54503;BME280;40411;50.090;21.954;2023-07-16T03:45:33;-33.78;;;18.79;100.00
54503;BME280;40411;50.090;21.954;2023-07-16T03:47:59;299.06;;;18.75;100.00
54503;BME280;40411;50.090;21.954;2023-07-16T03:50:25;-366.66;;;18.81;100.00
54503;BME280;40411;50.090;21.954;2023-07-16T03:52:51;-1031.13;;;19.13;100.00
54503;BME280;40411;50.090;21.954;2023-07-16T03:55:17;-698.13;;;19.11;100.00
54503;BME280;40411;50.090;21.954;2023-07-16T03:57:43;-1030.75;;;19.22;100.00
54503;BME280;40411;50.090;21.954;2023-07-16T04:00:09;-1363.28;;;19.37;100.00
54503;BME280;40411;50.090;21.954;2023-07-16T04:02:42;-1363.03;;;19.44;100.00
54503;BME280;40411;50.090;21.954;2023-07-16T04:05:14;-1695.91;;;19.54;100.00
54503;BME280;40411;50.090;21.954;2023-07-16T04:07:40;-1695.34;;;19.72;100.00
54503;BME280;40411;50.090;21.954;2023-07-16T04:10:06;-2028.13;;;19.91;100.00
54503;BME280;40411;50.090;21.954;2023-07-16T04:12:32;-2027.97;;;19.96;100.00
54503;BME280;40411;50.090;21.954;2023-07-16T04:14:58;-2360.97;;;20.15;100.00
54503;BME280;40411;50.090;21.954;2023-07-16T04:17:25;-2360.81;;;20.21;100.00
54503;BME280;40411;50.090;21.954;2023-07-16T04:19:51;-2693.91;;;20.46;100.00
54503;BME280;40411;50.090;21.954;2023-07-16T04:22:17;-3027.34;;;20.60;100.00
54503;BME280;40411;50.090;21.954;2023-07-16T04:24:43;-3027.22;;;20.69;100.00
54503;BME280;40411;50.090;21.954;2023-07-16T04:27:09;-3026.78;;;21.04;100.00
54503;BME280;40411;50.090;21.954;2023-07-16T04:29:35;-3694.44;;;21.38;100.00
54503;BME280;40411;50.090;21.954;2023-07-16T04:32:02;-4028.47;;;21.44;100.00
54503;BME280;40411;50.090;21.954;2023-07-16T04:34:28;-4028.50;;;21.47;100.00
54503;BME280;40411;50.090;21.954;2023-07-16T04:36:54;-4028.50;;;21.54;100.00
54503;BME280;40411;50.090;21.954;2023-07-16T04:39:20;-3360.25;;;21.56;100.00
54503;BME280;40411;50.090;21.954;2023-07-16T04:41:46;-3360.03;;;21.82;100.00
54503;BME280;40411;50.090;21.954;2023-07-16T04:44:11;-3359.94;;;21.93;100.00
54503;BME280;40411;50.090;21.954;2023-07-16T04:46:38;-3025.38;;;22.05;100.00
54503;BME280;40411;50.090;21.954;2023-07-16T04:49:04;-3694.13;;;22.36;99.72
54503;BME280;40411;50.090;21.954;2023-07-16T04:51:30;-3694.09;;;22.44;99.00
54503;BME280;40411;50.090;21.954;2023-07-16T04:53:56;-4028.69;;;22.58;99.59
54503;BME280;40411;50.090;21.954;2023-07-16T04:56:22;-4028.72;;;22.77;97.77
54503;BME280;40411;50.090;21.954;2023-07-16T04:58:48;-4028.75;;;22.88;97.33
54503;BME280;40411;50.090;21.954;2023-07-16T05:01:14;-4028.75;;;23.05;95.00
54503;BME280;40411;50.090;21.954;2023-07-16T05:03:39;-4028.75;;;23.05;94.01
54503;BME280;40411;50.090;21.954;2023-07-16T05:06:05;-4028.78;;;23.15;95.10
54503;BME280;40411;50.090;21.954;2023-07-16T05:08:31;-4363.78;;;23.29;93.83
54503;BME280;40411;50.090;21.954;2023-07-16T05:10:57;-4363.94;;;23.53;91.41
54503;BME280;40411;50.090;21.954;2023-07-16T05:13:24;-4699.16;;;23.64;91.90
54503;BME280;40411;50.090;21.954;2023-07-16T05:15:50;-4699.44;;;23.88;90.55
54503;BME280;40411;50.090;21.954;2023-07-16T05:18:16;-5034.91;;;24.03;89.90
54503;BME280;40411;50.090;21.954;2023-07-16T05:20:42;-4699.63;;;24.05;88.89
54503;BME280;40411;50.090;21.954;2023-07-16T05:23:09;-4699.72;;;24.14;88.52
54503;BME280;40411;50.090;21.954;2023-07-16T05:25:35;-4699.88;;;24.28;86.70
54503;BME280;40411;50.090;21.954;2023-07-16T05:28:01;-5035.47;;;24.37;87.41
54503;BME280;40411;50.090;21.954;2023-07-16T05:30:27;-4699.94;;;24.33;86.73
54503;BME280;40411;50.090;21.954;2023-07-16T05:32:53;-5035.56;;;24.41;88.00
54503;BME280;40411;50.090;21.954;2023-07-16T05:35:19;-5035.78;;;24.56;86.87
54503;BME280;40411;50.090;21.954;2023-07-16T05:37:44;-5035.88;;;24.62;85.15
54503;BME280;40411;50.090;21.954;2023-07-16T05:40:10;-5036.03;;;24.71;85.12
54503;BME280;40411;50.090;21.954;2023-07-16T05:42:36;-5371.84;;;24.78;85.78
54503;BME280;40411;50.090;21.954;2023-07-16T05:45:03;-5708.19;;;25.05;85.22
54503;BME280;40411;50.090;21.954;2023-07-16T05:47:29;-5036.44;;;24.96;83.20
54503;BME280;40411;50.090;21.954;2023-07-16T05:49:55;-5372.69;;;25.18;83.13
54503;BME280;40411;50.090;21.954;2023-07-16T05:52:20;-5372.91;;;25.28;82.62
54503;BME280;40411;50.090;21.954;2023-07-16T05:54:46;-5709.13;;;25.40;82.54
54503;BME280;40411;50.090;21.954;2023-07-16T05:57:12;-6045.91;;;25.67;81.42
54503;BME280;40411;50.090;21.954;2023-07-16T05:59:38;-6046.25;;;25.77;81.90
54503;BME280;40411;50.090;21.954;2023-07-16T06:02:05;-5373.94;;;25.77;78.65
54503;BME280;40411;50.090;21.954;2023-07-16T06:04:31;-5374.09;;;25.86;77.33
54503;BME280;40411;50.090;21.954;2023-07-16T06:06:57;-5711.06;;;26.14;76.79
54503;BME280;40411;50.090;21.954;2023-07-16T06:09:23;-5374.91;;;26.24;75.89
54503;BME280;40411;50.090;21.954;2023-07-16T06:11:49;-5038.69;;;26.39;74.07
54503;BME280;40411;50.090;21.954;2023-07-16T06:14:16;-5038.94;;;26.55;72.23
54503;BME280;40411;50.090;21.954;2023-07-16T06:16:42;-4702.34;;;26.60;70.90
54503;BME280;40411;50.090;21.954;2023-07-16T06:19:08;-4702.50;;;26.76;71.10
54503;BME280;40411;50.090;21.954;2023-07-16T06:21:34;-5039.53;;;26.95;70.94
54503;BME280;40411;50.090;21.954;2023-07-16T06:24:00;-5376.84;;;27.20;69.39
54503;BME280;40411;50.090;21.954;2023-07-16T06:26:26;-5714.38;;;27.43;69.47
54503;BME280;40411;50.090;21.954;2023-07-16T06:28:52;-6052.19;;;27.70;68.95
54503;BME280;40411;50.090;21.954;2023-07-16T06:31:18;-7406.72;;;28.92;64.46
54503;BME280;40411;50.090;21.954;2023-07-16T06:33:44;-8428.81;;;30.33;58.27
54503;BME280;40411;50.090;21.954;2023-07-16T06:36:12;-8432.38;;;30.87;55.58
54503;BME280;40411;50.090;21.954;2023-07-16T06:38:38;-8433.75;;;31.08;55.97
54503;BME280;40411;50.090;21.954;2023-07-16T06:41:04;-7076.16;;;30.50;55.45
54503;BME280;40411;50.090;21.954;2023-07-16T06:43:30;-7754.53;;;30.76;56.08
54503;BME280;40411;50.090;21.954;2023-07-16T06:45:56;-7756.69;;;31.15;52.98
54503;BME280;40411;50.090;21.954;2023-07-16T06:48:22;-7756.56;;;31.13;53.07
54503;BME280;40411;50.090;21.954;2023-07-16T06:50:51;-7416.66;;;30.90;54.05
54503;BME280;40411;50.090;21.954;2023-07-16T06:53:18;-6058.81;;;29.92;56.75
54503;BME280;40411;50.090;21.954;2023-07-16T06:55:43;-6737.59;;;30.49;54.70
54503;BME280;40411;50.090;21.954;2023-07-16T06:58:13;-8094.47;;;30.99;56.27
54503;BME280;40411;50.090;21.954;2023-07-16T07:00:39;-8780.78;;;32.27;50.90
54503;BME280;40411;50.090;21.954;2023-07-16T07:03:06;-9118.31;;;32.04;53.41
54503;BME280;40411;50.090;21.954;2023-07-16T07:05:32;-9464.34;;;32.90;48.59
54503;BME280;40411;50.090;21.954;2023-07-16T07:07:58;-9125.38;;;32.99;47.83
54503;BME280;40411;50.090;21.954;2023-07-16T07:10:24;-8098.94;;;31.73;52.96
54503;BME280;40411;50.090;21.954;2023-07-16T07:12:49;-9805.59;;;33.11;49.28
54503;BME280;40411;50.090;21.954;2023-07-16T07:15:15;-8785.03;;;32.88;48.24
54503;BME280;40411;50.090;21.954;2023-07-16T07:17:41;-7421.41;;;31.87;49.95
54503;BME280;40411;50.090;21.954;2023-07-16T07:20:08;-8100.59;;;32.01;50.95
54503;BME280;40411;50.090;21.954;2023-07-16T07:22:34;-8099.75;;;31.87;51.68
54503;BME280;40411;50.090;21.954;2023-07-16T07:25:00;-10488.06;;;33.45;50.35
54503;BME280;40411;50.090;21.954;2023-07-16T07:27:26;-8784.53;;;32.81;49.16
54503;BME280;40411;50.090;21.954;2023-07-16T07:29:52;-9808.19;;;33.41;49.44
54503;BME280;40411;50.090;21.954;2023-07-16T07:32:21;-9809.44;;;33.56;48.29
54503;BME280;40411;50.090;21.954;2023-07-16T07:34:47;-10494.16;;;34.09;47.02
54503;BME280;40411;50.090;21.954;2023-07-16T07:37:13;-10150.28;;;33.67;48.82
54503;BME280;40411;50.090;21.954;2023-07-16T07:39:39;-8782.97;;;32.59;50.48
54503;BME280;40411;50.090;21.954;2023-07-16T07:42:05;-9806.81;;;33.25;49.93
54503;BME280;40411;50.090;21.954;2023-07-16T07:44:32;-10496.94;;;34.38;45.66
54503;BME280;40411;50.090;21.954;2023-07-16T07:46:58;-10496.44;;;34.33;46.25
54503;BME280;40411;50.090;21.954;2023-07-16T07:49:24;-10498.94;;;34.59;44.94
54503;BME280;40411;50.090;21.954;2023-07-16T07:51:49;-11527.59;;;35.30;44.26
54503;BME280;40411;50.090;21.954;2023-07-16T07:54:17;-11872.03;;;35.63;44.38
54503;BME280;40411;50.090;21.954;2023-07-16T07:56:45;-11867.00;;;35.20;46.84
54503;BME280;40411;50.090;21.954;2023-07-16T07:59:11;-10845.06;;;35.18;42.52
54503;BME280;40411;50.090;21.954;2023-07-16T08:01:37;-9132.91;;;33.99;44.31
54503;BME280;40411;50.090;21.954;2023-07-16T08:04:03;-11529.94;;;35.51;43.46
54503;BME280;40411;50.090;21.954;2023-07-16T08:06:29;-10156.66;;;34.38;45.36
54503;BME280;40411;50.090;21.954;2023-07-16T08:08:55;-11190.50;;;35.64;43.00
54503;BME280;40411;50.090;21.954;2023-07-16T08:11:20;-13939.63;;;37.25;43.60
54503;BME280;40411;50.090;21.954;2023-07-16T08:13:46;-11532.66;;;35.76;43.25
54503;BME280;40411;50.090;21.954;2023-07-16T08:16:12;-9819.88;;;34.79;42.61
54503;BME280;40411;50.090;21.954;2023-07-16T08:18:38;-9816.03;;;34.34;45.16
54503;BME280;40411;50.090;21.954;2023-07-16T08:21:04;-11192.59;;;35.84;41.10
54503;BME280;40411;50.090;21.954;2023-07-16T08:23:30;-10162.06;;;34.98;42.65
54503;BME280;40411;50.090;21.954;2023-07-16T08:25:56;-9820.25;;;34.84;43.14
54503;BME280;40411;50.090;21.954;2023-07-16T08:28:22;-10849.16;;;35.58;42.46
54503;BME280;40411;50.090;21.954;2023-07-16T08:30:48;-12223.03;;;36.49;42.41
54503;BME280;40411;50.090;21.954;2023-07-16T08:33:14;-8795.72;;;34.43;41.62
54503;BME280;40411;50.090;21.954;2023-07-16T08:35:41;-11884.31;;;36.70;39.79
54503;BME280;40411;50.090;21.954;2023-07-16T08:38:07;-11537.44;;;36.19;41.22
54503;BME280;40411;50.090;21.954;2023-07-16T08:40:37;-9485.13;;;35.52;38.97
54503;BME280;40411;50.090;21.954;2023-07-16T08:43:05;-10854.34;;;36.11;39.57
54503;BME280;40411;50.090;21.954;2023-07-16T08:45:39;-9825.81;;;35.50;40.47
54503;BME280;40411;50.090;21.954;2023-07-16T08:48:11;-10170.53;;;35.93;39.05
54503;BME280;40411;50.090;21.954;2023-07-16T08:50:37;-9828.56;;;35.83;38.51
54503;BME280;40411;50.090;21.954;2023-07-16T08:53:07;-9484.09;;;35.39;39.37
54503;BME280;40411;50.090;21.954;2023-07-16T08:55:33;-8798.75;;;34.87;41.10
54503;BME280;40411;50.090;21.954;2023-07-16T08:58:01;-9820.38;;;34.85;44.41
54503;BME280;40411;50.090;21.954;2023-07-16T09:00:27;-10856.06;;;36.28;40.17
54503;BME280;40411;50.090;21.954;2023-07-16T09:02:53;-12921.81;;;37.75;38.96
54503;BME280;40411;50.090;21.954;2023-07-16T09:05:20;-12233.94;;;37.40;38.25
54503;BME280;40411;50.090;21.954;2023-07-16T09:07:46;-12237.78;;;37.72;37.27
54503;BME280;40411;50.090;21.954;2023-07-16T09:10:12;-9829.13;;;35.89;39.08
54503;BME280;40411;50.090;21.954;2023-07-16T09:12:45;-11204.66;;;36.99;37.92
54503;BME280;40411;50.090;21.954;2023-07-16T09:15:17;-9484.41;;;35.43;40.20
54503;BME280;40411;50.090;21.954;2023-07-16T09:17:48;-10514.63;;;36.26;39.08
54503;BME280;40411;50.090;21.954;2023-07-16T09:20:17;-11547.13;;;37.08;38.62
54503;BME280;40411;50.090;21.954;2023-07-16T09:22:44;-11552.94;;;37.61;35.82
54503;BME280;40411;50.090;21.954;2023-07-16T09:25:11;-11894.37;;;37.58;37.31
54503;BME280;40411;50.090;21.954;2023-07-16T09:27:37;-12233.56;;;37.37;39.92
54503;BME280;40411;50.090;21.954;2023-07-16T09:30:06;-11549.53;;;37.30;37.29
54503;BME280;40411;50.090;21.954;2023-07-16T09:32:39;-12582.59;;;37.96;38.48
54503;BME280;40411;50.090;21.954;2023-07-16T09:35:12;-14655.75;;;39.39;38.87
54503;BME280;40411;50.090;21.954;2023-07-16T09:37:38;-12591.34;;;38.66;35.69
54503;BME280;40411;50.090;21.954;2023-07-16T09:40:09;-13276.19;;;38.69;36.56
54503;BME280;40411;50.090;21.954;2023-07-16T09:42:40;-12244.75;;;38.30;36.56
54503;BME280;40411;50.090;21.954;2023-07-16T09:45:08;-11897.66;;;37.87;36.70
54503;BME280;40411;50.090;21.954;2023-07-16T09:47:37;-11900.22;;;38.09;36.42
54503;BME280;40411;50.090;21.954;2023-07-16T09:50:03;-12592.63;;;38.77;34.70
54503;BME280;40411;50.090;21.954;2023-07-16T09:52:32;-10527.72;;;37.65;34.02
54503;BME280;40411;50.090;21.954;2023-07-16T09:55:01;-9488.91;;;36.00;39.42
54503;BME280;40411;50.090;21.954;2023-07-16T09:57:32;-9147.63;;;35.99;39.38
54503;BME280;40411;50.090;21.954;2023-07-16T09:59:59;-10865.13;;;37.20;37.20
54503;BME280;40411;50.090;21.954;2023-07-16T10:02:26;-10866.09;;;37.29;37.04
54503;BME280;40411;50.090;21.954;2023-07-16T10:04:54;-11549.41;;;37.29;39.78
54503;BME280;40411;50.090;21.954;2023-07-16T10:07:24;-11900.69;;;38.13;35.99
54503;BME280;40411;50.090;21.954;2023-07-16T10:09:57;-11213.91;;;37.88;35.20
54503;BME280;40411;50.090;21.954;2023-07-16T10:12:25;-11553.47;;;37.66;38.03
54503;BME280;40411;50.090;21.954;2023-07-16T10:14:53;-12243.81;;;38.22;37.18
54503;BME280;40411;50.090;21.954;2023-07-16T10:17:26;-13275.44;;;38.63;38.86
54503;BME280;40411;50.090;21.954;2023-07-16T10:19:57;-14309.41;;;39.14;39.71
54503;BME280;40411;50.090;21.954;2023-07-16T10:25:00;-13626.41;;;39.26;36.68
54503;BME280;40411;50.090;21.954;2023-07-16T10:27:30;-13628.47;;;39.41;36.58
54503;BME280;40411;50.090;21.954;2023-07-16T10:29:58;-13977.59;;;39.87;35.16
54503;BME280;40411;50.090;21.954;2023-07-16T10:32:29;-14318.53;;;39.74;37.72
54503;BME280;40411;50.090;21.954;2023-07-16T10:34:56;-12942.66;;;39.37;34.28
54503;BME280;40411;50.090;21.954;2023-07-16T10:37:22;-12945.19;;;39.56;34.58
54503;BME280;40411;50.090;21.954;2023-07-16T10:39:49;-11561.84;;;38.43;35.20
54503;BME280;40411;50.090;21.954;2023-07-16T10:42:16;-11902.31;;;38.28;36.82
54503;BME280;40411;50.090;21.954;2023-07-16T10:44:43;-13272.53;;;38.42;41.31
54503;BME280;40411;50.090;21.954;2023-07-16T10:47:22;-12237.84;;;37.72;41.04
54503;BME280;40411;50.090;21.954;2023-07-16T10:49:49;-10527.25;;;37.60;36.38
54503;BME280;40411;50.090;21.954;2023-07-16T10:52:15;-10867.66;;;37.45;38.38
54503;BME280;40411;50.090;21.954;2023-07-16T10:54:41;-10179.50;;;36.94;38.52
54503;BME280;40411;50.090;21.954;2023-07-16T10:57:07;-12233.31;;;37.34;43.42
54503;BME280;40411;50.090;21.954;2023-07-16T10:59:32;-11209.34;;;37.44;39.34
54503;BME280;40411;50.090;21.954;2023-07-16T11:01:58;-11549.06;;;37.26;41.08
54503;BME280;40411;50.090;21.954;2023-07-16T11:04:24;-10863.47;;;37.03;40.15
54503;BME280;40411;50.090;21.954;2023-07-16T11:06:50;-11207.84;;;37.30;40.97
54503;BME280;40411;50.090;21.954;2023-07-16T11:09:16;-11547.13;;;37.08;42.42
54503;BME280;40411;50.090;21.954;2023-07-16T11:11:42;-10513.66;;;36.15;44.25
54503;BME280;40411;50.090;21.954;2023-07-16T11:14:07;-10864.53;;;37.13;40.06
54503;BME280;40411;50.090;21.954;2023-07-16T11:16:35;-11206.84;;;37.20;41.57
54503;BME280;40411;50.090;21.954;2023-07-16T11:19:03;-11208.34;;;37.34;40.36
54503;BME280;40411;50.090;21.954;2023-07-16T11:21:29;-10866.50;;;37.33;39.35
54503;BME280;40411;50.090;21.954;2023-07-16T11:23:55;-11209.88;;;37.49;39.38
54503;BME280;40411;50.090;21.954;2023-07-16T11:26:21;-10864.34;;;37.11;40.49
54503;BME280;40411;50.090;21.954;2023-07-16T11:28:50;-10179.72;;;36.97;39.03
54503;BME280;40411;50.090;21.954;2023-07-16T11:31:17;-10522.25;;;37.07;39.76
54503;BME280;40411;50.090;21.954;2023-07-16T11:33:46;-9839.84;;;37.18;36.95
54503;BME280;40411;50.090;21.954;2023-07-16T11:36:12;-9154.69;;;36.96;36.68
54503;BME280;40411;50.090;21.954;2023-07-16T11:38:38;-12234.97;;;37.48;43.83
54503;BME280;40411;50.090;21.954;2023-07-16T11:41:04;-9152.94;;;36.72;38.31
54503;BME280;40411;50.090;21.954;2023-07-16T11:43:37;-9837.88;;;36.94;38.72
54503;BME280;40411;50.090;21.954;2023-07-16T11:46:14;-10180.06;;;37.01;39.77
54503;BME280;40411;50.090;21.954;2023-07-16T11:48:41;-9493.59;;;36.60;40.42
54503;BME280;40411;50.090;21.954;2023-07-16T11:51:08;-8119.94;;;35.30;43.00
54503;BME280;40411;50.090;21.954;2023-07-16T11:53:34;-10170.28;;;35.90;46.72
54503;BME280;40411;50.090;21.954;2023-07-16T11:56:00;-9150.66;;;36.40;39.30
54503;BME280;40411;50.090;21.954;2023-07-16T11:58:25;-10861.25;;;36.80;42.21
54503;BME280;40411;50.090;21.954;2023-07-16T12:00:51;-10520.00;;;36.83;42.04
54503;BME280;40411;50.090;21.954;2023-07-16T12:03:17;-10865.00;;;37.18;41.50
54503;BME280;40411;50.090;21.954;2023-07-16T12:05:43;-9493.50;;;36.59;40.20
54503;BME280;40411;50.090;21.954;2023-07-16T12:08:09;-9497.84;;;37.15;36.75
54503;BME280;40411;50.090;21.954;2023-07-16T12:10:40;-8812.72;;;36.91;36.85
54503;BME280;40411;50.090;21.954;2023-07-16T12:13:06;-9154.53;;;36.94;36.87
54503;BME280;40411;50.090;21.954;2023-07-16T12:15:32;-10180.16;;;37.02;40.13
54503;BME280;40411;50.090;21.954;2023-07-16T12:17:59;-8468.22;;;36.47;37.88
54503;BME280;40411;50.090;21.954;2023-07-16T12:20:26;-9151.78;;;36.56;40.15
54503;BME280;40411;50.090;21.954;2023-07-16T12:22:51;-8810.31;;;36.56;39.20
54503;BME280;40411;50.090;21.954;2023-07-16T12:25:18;-9837.13;;;36.85;39.82
54503;BME280;40411;50.090;21.954;2023-07-16T12:27:44;-9493.88;;;36.64;39.85
54503;BME280;40411;50.090;21.954;2023-07-16T12:30:10;-9839.38;;;37.12;38.67
54503;BME280;40411;50.090;21.954;2023-07-16T12:32:36;-9839.88;;;37.18;38.81
54503;BME280;40411;50.090;21.954;2023-07-16T12:35:02;-9155.63;;;37.08;37.02
54503;BME280;40411;50.090;21.954;2023-07-16T12:37:30;-9497.56;;;37.11;38.03
54503;BME280;40411;50.090;21.954;2023-07-16T12:39:56;-9152.25;;;36.62;40.25
54503;BME280;40411;50.090;21.954;2023-07-16T12:42:21;-8468.69;;;36.55;37.64
54503;BME280;40411;50.090;21.954;2023-07-16T12:44:47;-8810.16;;;36.54;39.25
54503;BME280;40411;50.090;21.954;2023-07-16T12:47:15;-9153.84;;;36.84;38.16
54503;BME280;40411;50.090;21.954;2023-07-16T12:49:41;-9498.19;;;37.19;38.04
54503;BME280;40411;50.090;21.954;2023-07-16T12:52:07;-9157.03;;;37.28;36.83
54503;BME280;40411;50.090;21.954;2023-07-16T12:54:33;-8127.50;;;36.61;37.17